Time,TemperatureF,DewpointF,PressureIn,WindDirection,WindDirectionDegrees,WindSpeedMPH,WindSpeedGustMPH,Humidity,HourlyPrecipIn,Conditions,Clouds,dailyrainin,SoftwareType,DateUTC
2013-03-07 00:00:00,60.0,-99.9,30.23,SE,126,6.0,8.0,-999,-99.99,,,-99.99,,2013-03-07 06:00:00,
2013-03-07 00:32:00,60.0,-99.9,30.23,SE,126,6.0,8.0,-999,-99.99,,,-99.99,,2013-03-07 06:32:00,
2013-03-07 00:42:00,60.0,-99.9,30.23,SE,126,6.0,8.0,-999,-99.99,,,-99.99,,2013-03-07 06:42:00,
2013-03-07 00:52:00,60.0,-99.9,30.23,SE,126,6.0,8.0,-999,-99.99,,,-99.99,,2013-03-07 06:52:00,
2013-03-07 01:00:00,61.0,-99.9,30.22,SE,124,7.0,9.0,-999,-99.99,,,-99.99,,2013-03-07 07:00:00,
2013-03-07 01:32:00,61.0,-99.9,30.22,SE,124,7.0,9.0,-999,-99.99,,,-99.99,,2013-03-07 07:32:00,
2013-03-07 01:43:00,61.0,-99.9,30.22,SE,124,7.0,9.0,-999,-99.99,,,-99.99,,2013-03-07 07:43:00,
2013-03-07 01:53:00,61.0,-99.9,30.22,SE,124,7.0,9.0,-999,-99.99,,,-99.99,,2013-03-07 07:53:00,
2013-03-07 02:00:00,60.0,-99.9,30.19,ESE,118,9.0,11.0,-999,-99.99,,,-99.99,,2013-03-07 08:00:00,
2013-03-07 02:34:00,60.0,-99.9,30.19,ESE,118,9.0,11.0,-999,-99.99,,,-99.99,,2013-03-07 08:34:00,
2013-03-07 02:45:00,60.0,-99.9,30.19,ESE,118,9.0,11.0,-999,-99.99,,,-99.99,,2013-03-07 08:45:00,
2013-03-07 02:55:00,60.0,-99.9,30.19,ESE,118,9.0,11.0,-999,-99.99,,,-99.99,,2013-03-07 08:55:00,
2013-03-07 03:00:00,61.0,-99.9,30.16,SE,125,7.0,9.0,-999,-99.99,,,-99.99,,2013-03-07 09:00:00,
2013-03-07 03:43:00,61.0,-99.9,30.16,SE,125,7.0,9.0,-999,-99.99,,,-99.99,,2013-03-07 09:43:00,
2013-03-07 03:54:00,61.0,-99.9,30.16,SE,125,7.0,9.0,-999,-99.99,,,-99.99,,2013-03-07 09:54:00,
2013-03-07 04:00:00,61.0,-99.9,30.14,SE,127,7.0,9.0,-999,-99.99,,,-99.99,,2013-03-07 10:00:00,
2013-03-07 04:33:00,61.0,-99.9,30.14,SE,127,7.0,9.0,-999,-99.99,,,-99.99,,2013-03-07 10:33:00,
2013-03-07 04:43:00,61.0,-99.9,30.14,SE,127,7.0,9.0,-999,-99.99,,,-99.99,,2013-03-07 10:43:00,
2013-03-07 04:54:00,61.0,-99.9,30.14,SE,127,7.0,9.0,-999,-99.99,,,-99.99,,2013-03-07 10:54:00,
2013-03-07 05:00:00,61.0,-99.9,30.14,ESE,123,6.0,8.0,-999,-99.99,,,-99.99,,2013-03-07 11:00:00,
2013-03-07 05:34:00,61.0,-99.9,30.14,ESE,123,6.0,8.0,-999,-99.99,,,-99.99,,2013-03-07 11:34:00,
2013-03-07 05:44:00,61.0,-99.9,30.14,ESE,123,6.0,8.0,-999,-99.99,,,-99.99,,2013-03-07 11:44:00,
2013-03-07 05:55:00,61.0,-99.9,30.14,ESE,123,6.0,8.0,-999,-99.99,,,-99.99,,2013-03-07 11:55:00,
2013-03-07 06:00:00,62.0,-99.9,30.15,ESE,113,9.0,11.0,-999,-99.99,,,-99.99,,2013-03-07 12:00:00,
2013-03-07 06:34:00,62.0,-99.9,30.15,ESE,113,9.0,11.0,-999,-99.99,,,-99.99,,2013-03-07 12:34:00,
2013-03-07 06:43:00,62.0,-99.9,30.15,ESE,113,9.0,11.0,-999,-99.99,,,-99.99,,2013-03-07 12:43:00,
2013-03-07 06:53:00,62.0,-99.9,30.15,ESE,113,9.0,11.0,-999,-99.99,,,-99.99,,2013-03-07 12:53:00,
2013-03-07 07:00:00,62.0,-99.9,30.16,ESE,114,6.0,7.0,-999,-99.99,,,-99.99,,2013-03-07 13:00:00,
2013-03-07 07:33:00,62.0,-99.9,30.16,ESE,114,6.0,7.0,-999,-99.99,,,-99.99,,2013-03-07 13:33:00,
2013-03-07 07:43:00,62.0,-99.9,30.16,ESE,114,6.0,7.0,-999,-99.99,,,-99.99,,2013-03-07 13:43:00,
2013-03-07 07:53:00,62.0,-99.9,30.16,ESE,114,6.0,7.0,-999,-99.99,,,-99.99,,2013-03-07 13:53:00,
2013-03-07 08:00:00,64.0,-99.9,30.19,ESE,122,6.0,7.0,-999,-99.99,,,-99.99,,2013-03-07 14:00:00,
2013-03-07 08:34:00,64.0,-99.9,30.19,ESE,122,6.0,7.0,-999,-99.99,,,-99.99,,2013-03-07 14:34:00,
2013-03-07 08:43:00,64.0,-99.9,30.19,ESE,122,6.0,7.0,-999,-99.99,,,-99.99,,2013-03-07 14:43:00,
2013-03-07 08:54:00,64.0,-99.9,30.19,ESE,122,6.0,7.0,-999,-99.99,,,-99.99,,2013-03-07 14:54:00,
2013-03-07 09:00:00,66.0,-99.9,30.21,ESE,118,9.0,12.0,-999,-99.99,,,-99.99,,2013-03-07 15:00:00,
2013-03-07 09:33:00,66.0,-99.9,30.21,ESE,118,9.0,12.0,-999,-99.99,,,-99.99,,2013-03-07 15:33:00,
2013-03-07 09:43:00,66.0,-99.9,30.21,ESE,118,9.0,12.0,-999,-99.99,,,-99.99,,2013-03-07 15:43:00,
2013-03-07 09:53:00,66.0,-99.9,30.21,ESE,118,9.0,12.0,-999,-99.99,,,-99.99,,2013-03-07 15:53:00,
2013-03-07 10:00:00,67.0,-99.9,30.22,ESE,115,13.0,15.0,-999,-99.99,,,-99.99,,2013-03-07 16:00:00,
2013-03-07 10:33:00,67.0,-99.9,30.22,ESE,115,13.0,15.0,-999,-99.99,,,-99.99,,2013-03-07 16:33:00,
2013-03-07 10:43:00,67.0,-99.9,30.22,ESE,115,13.0,15.0,-999,-99.99,,,-99.99,,2013-03-07 16:43:00,
2013-03-07 10:53:00,67.0,-99.9,30.22,ESE,115,13.0,15.0,-999,-99.99,,,-99.99,,2013-03-07 16:53:00,
2013-03-07 11:00:00,67.0,-99.9,30.22,ESE,103,13.0,16.0,-999,-99.99,,,-99.99,,2013-03-07 17:00:00,
2013-03-07 11:34:00,67.0,-99.9,30.22,ESE,103,13.0,16.0,-999,-99.99,,,-99.99,,2013-03-07 17:34:00,
2013-03-07 11:44:00,67.0,-99.9,30.22,ESE,103,13.0,16.0,-999,-99.99,,,-99.99,,2013-03-07 17:44:00,
2013-03-07 11:55:00,67.0,-99.9,30.22,ESE,103,13.0,16.0,-999,-99.99,,,-99.99,,2013-03-07 17:55:00,
2013-03-07 12:00:00,67.0,-99.9,30.19,ESE,106,17.0,20.0,-999,-99.99,,,-99.99,,2013-03-07 18:00:00,
2013-03-07 12:33:00,67.0,-99.9,30.19,ESE,106,17.0,20.0,-999,-99.99,,,-99.99,,2013-03-07 18:33:00,
2013-03-07 12:43:00,67.0,-99.9,30.19,ESE,106,17.0,20.0,-999,-99.99,,,-99.99,,2013-03-07 18:43:00,
2013-03-07 12:53:00,67.0,-99.9,30.19,ESE,106,17.0,20.0,-999,-99.99,,,-99.99,,2013-03-07 18:53:00,
2013-03-07 13:00:00,67.0,-99.9,30.16,East,97,18.0,21.0,-999,-99.99,,,-99.99,,2013-03-07 19:00:00,
2013-03-07 13:35:00,67.0,-99.9,30.16,East,97,18.0,21.0,-999,-99.99,,,-99.99,,2013-03-07 19:35:00,
2013-03-07 13:44:00,67.0,-99.9,30.16,East,97,18.0,21.0,-999,-99.99,,,-99.99,,2013-03-07 19:44:00,
2013-03-07 13:53:00,67.0,-99.9,30.16,East,97,18.0,21.0,-999,-99.99,,,-99.99,,2013-03-07 19:53:00,
2013-03-07 14:00:00,67.0,-99.9,30.14,ESE,106,19.0,24.0,-999,-99.99,,,-99.99,,2013-03-07 20:00:00,
2013-03-07 14:34:00,67.0,-99.9,30.14,ESE,106,19.0,24.0,-999,-99.99,,,-99.99,,2013-03-07 20:34:00,
2013-03-07 14:43:00,67.0,-99.9,30.14,ESE,106,19.0,24.0,-999,-99.99,,,-99.99,,2013-03-07 20:43:00,
2013-03-07 14:54:00,67.0,-99.9,30.14,ESE,106,19.0,24.0,-999,-99.99,,,-99.99,,2013-03-07 20:54:00,
2013-03-07 15:00:00,67.0,-99.9,30.13,East,99,18.0,22.0,-999,-99.99,,,-99.99,,2013-03-07 21:00:00,
2013-03-07 15:33:00,67.0,-99.9,30.13,East,99,18.0,22.0,-999,-99.99,,,-99.99,,2013-03-07 21:33:00,
2013-03-07 15:43:00,67.0,-99.9,30.13,East,99,18.0,22.0,-999,-99.99,,,-99.99,,2013-03-07 21:43:00,
2013-03-07 15:53:00,67.0,-99.9,30.13,East,99,18.0,22.0,-999,-99.99,,,-99.99,,2013-03-07 21:53:00,
2013-03-07 16:00:00,67.0,-99.9,30.13,ESE,107,18.0,21.0,-999,-99.99,,,-99.99,,2013-03-07 22:00:00,
2013-03-07 16:33:00,67.0,-99.9,30.13,ESE,107,18.0,21.0,-999,-99.99,,,-99.99,,2013-03-07 22:33:00,
2013-03-07 16:44:00,67.0,-99.9,30.13,ESE,107,18.0,21.0,-999,-99.99,,,-99.99,,2013-03-07 22:44:00,
2013-03-07 16:55:00,67.0,-99.9,30.13,ESE,107,18.0,21.0,-999,-99.99,,,-99.99,,2013-03-07 22:55:00,
2013-03-07 17:00:00,67.0,-99.9,30.11,ESE,104,16.0,21.0,-999,-99.99,,,-99.99,,2013-03-07 23:00:00,
2013-03-07 17:35:00,67.0,-99.9,30.11,ESE,104,16.0,21.0,-999,-99.99,,,-99.99,,2013-03-07 23:35:00,
2013-03-07 17:44:00,67.0,-99.9,30.11,ESE,104,16.0,21.0,-999,-99.99,,,-99.99,,2013-03-07 23:44:00,
2013-03-07 17:54:00,67.0,-99.9,30.11,ESE,104,16.0,21.0,-999,-99.99,,,-99.99,,2013-03-07 23:54:00,
2013-03-07 18:00:00,66.0,-99.9,30.13,ESE,109,15.0,19.0,-999,-99.99,,,-99.99,,2013-03-08 00:00:00,
2013-03-07 18:35:00,66.0,-99.9,30.13,ESE,109,15.0,19.0,-999,-99.99,,,-99.99,,2013-03-08 00:35:00,
2013-03-07 18:44:00,66.0,-99.9,30.13,ESE,109,15.0,19.0,-999,-99.99,,,-99.99,,2013-03-08 00:44:00,
2013-03-07 18:54:00,66.0,-99.9,30.13,ESE,109,15.0,19.0,-999,-99.99,,,-99.99,,2013-03-08 00:54:00,
2013-03-07 19:00:00,66.0,-99.9,30.12,ESE,105,14.0,17.0,-999,-99.99,,,-99.99,,2013-03-08 01:00:00,
2013-03-07 19:33:00,66.0,-99.9,30.12,ESE,105,14.0,17.0,-999,-99.99,,,-99.99,,2013-03-08 01:33:00,
2013-03-07 19:42:00,66.0,-99.9,30.12,ESE,105,14.0,17.0,-999,-99.99,,,-99.99,,2013-03-08 01:42:00,
2013-03-07 19:52:00,66.0,-99.9,30.12,ESE,105,14.0,17.0,-999,-99.99,,,-99.99,,2013-03-08 01:52:00,
2013-03-07 20:00:00,65.0,-99.9,30.13,ESE,109,13.0,15.0,-999,-99.99,,,-99.99,,2013-03-08 02:00:00,
2013-03-07 20:32:00,65.0,-99.9,30.13,ESE,109,13.0,15.0,-999,-99.99,,,-99.99,,2013-03-08 02:32:00,
2013-03-07 20:42:00,65.0,-99.9,30.13,ESE,109,13.0,15.0,-999,-99.99,,,-99.99,,2013-03-08 02:42:00,
2013-03-07 20:53:00,65.0,-99.9,30.13,ESE,109,13.0,15.0,-999,-99.99,,,-99.99,,2013-03-08 02:53:00,
2013-03-07 21:00:00,66.0,-99.9,30.14,ESE,111,14.0,17.0,-999,-99.99,,,-99.99,,2013-03-08 03:00:00,
2013-03-07 21:33:00,66.0,-99.9,30.14,ESE,111,14.0,17.0,-999,-99.99,,,-99.99,,2013-03-08 03:33:00,
2013-03-07 21:43:00,66.0,-99.9,30.14,ESE,111,14.0,17.0,-999,-99.99,,,-99.99,,2013-03-08 03:43:00,
2013-03-07 21:53:00,66.0,-99.9,30.14,ESE,111,14.0,17.0,-999,-99.99,,,-99.99,,2013-03-08 03:53:00,
2013-03-07 22:00:00,66.0,-99.9,30.14,ESE,118,12.0,16.0,-999,-99.99,,,-99.99,,2013-03-08 04:00:00,
2013-03-07 22:32:00,66.0,-99.9,30.14,ESE,118,12.0,16.0,-999,-99.99,,,-99.99,,2013-03-08 04:32:00,
2013-03-07 22:43:00,66.0,-99.9,30.14,ESE,118,12.0,16.0,-999,-99.99,,,-99.99,,2013-03-08 04:43:00,
2013-03-07 22:52:00,66.0,-99.9,30.14,ESE,118,12.0,16.0,-999,-99.99,,,-99.99,,2013-03-08 04:52:00,
2013-03-07 23:00:00,66.0,-99.9,30.13,ESE,113,13.0,18.0,-999,-99.99,,,-99.99,,2013-03-08 05:00:00,
2013-03-07 23:33:00,66.0,-99.9,30.13,ESE,113,13.0,18.0,-999,-99.99,,,-99.99,,2013-03-08 05:33:00,
2013-03-07 23:43:00,66.0,-99.9,30.13,ESE,113,13.0,18.0,-999,-99.99,,,-99.99,,2013-03-08 05:43:00,
2013-03-07 23:52:00,66.0,-99.9,30.13,ESE,113,13.0,18.0,-999,-99.99,,,-99.99,,2013-03-08 05:52:00,